Winneconne, Wisconsin
Current Conditions -  °F | °C
As of 11:53 AM on Thursday 23 Oct 2014 (Local Time) from KOSH Reporting Station
Scattered Clouds Scattered Clouds  
Wind Chill: 51°   Ceiling: Unl
Heat Index: 51°   Visibility: 10mi
Dew Point: 41°   Wind: 10mph
Humidity: 68%   Direction: 200°SSW
Pressure: 30.11"   Gusts: NA
Location:  44.11°N, 88.71°W
Report Text: KOSH 231653Z 20009KT 10SM FEW050 SCT110 11/05 A3011 RMK AO2 SLP202 T01060050
Loading
Personal Weather Stations






























Interactive Weather Map
Tropical Storm Tracking
New forecast layout! Learn more

10-Day Weather Forecast

Advertisements
Track Severe Weather on mobile